sensor_id;sensor_type;location;lat;lon;timestamp;P1;durP1;ratioP1;P2;durP2;ratioP2
14554;SDS011;7364;50.870;4.722;2024-03-23T00:54:39;7.53;;;2.97;;
14554;SDS011;7364;50.870;4.722;2024-03-23T00:57:06;12.67;;;3.47;;
14554;SDS011;7364;50.870;4.722;2024-03-23T00:59:33;4.77;;;2.47;;
14554;SDS011;7364;50.870;4.722;2024-03-23T01:01:59;12.83;;;2.60;;
14554;SDS011;7364;50.870;4.722;2024-03-23T01:04:26;7.90;;;3.10;;
14554;SDS011;7364;50.870;4.722;2024-03-23T01:06:52;6.20;;;2.97;;
14554;SDS011;7364;50.870;4.722;2024-03-23T01:09:20;10.30;;;3.30;;
14554;SDS011;7364;50.870;4.722;2024-03-23T01:11:47;6.53;;;3.50;;
14554;SDS011;7364;50.870;4.722;2024-03-23T01:14:14;6.60;;;3.17;;
14554;SDS011;7364;50.870;4.722;2024-03-23T01:16:41;8.83;;;2.90;;
14554;SDS011;7364;50.870;4.722;2024-03-23T01:19:08;11.90;;;3.40;;
14554;SDS011;7364;50.870;4.722;2024-03-23T01:21:34;11.23;;;3.30;;
14554;SDS011;7364;50.870;4.722;2024-03-23T01:24:01;7.37;;;3.37;;
14554;SDS011;7364;50.870;4.722;2024-03-23T01:26:28;10.27;;;3.03;;
14554;SDS011;7364;50.870;4.722;2024-03-23T01:28:57;13.77;;;3.13;;
14554;SDS011;7364;50.870;4.722;2024-03-23T01:31:23;9.90;;;3.00;;
14554;SDS011;7364;50.870;4.722;2024-03-23T01:33:50;11.07;;;3.63;;
14554;SDS011;7364;50.870;4.722;2024-03-23T01:36:16;7.77;;;3.53;;
14554;SDS011;7364;50.870;4.722;2024-03-23T01:38:43;9.70;;;3.93;;
14554;SDS011;7364;50.870;4.722;2024-03-23T01:41:09;10.87;;;4.53;;
14554;SDS011;7364;50.870;4.722;2024-03-23T01:43:36;7.00;;;4.40;;
14554;SDS011;7364;50.870;4.722;2024-03-23T01:46:04;14.13;;;4.43;;
14554;SDS011;7364;50.870;4.722;2024-03-23T01:48:31;9.30;;;3.80;;
14554;SDS011;7364;50.870;4.722;2024-03-23T01:50:58;8.67;;;4.43;;
14554;SDS011;7364;50.870;4.722;2024-03-23T01:53:25;10.07;;;4.30;;
14554;SDS011;7364;50.870;4.722;2024-03-23T01:55:51;8.43;;;4.10;;
14554;SDS011;7364;50.870;4.722;2024-03-23T01:58:18;10.43;;;4.60;;
14554;SDS011;7364;50.870;4.722;2024-03-23T02:00:44;14.60;;;4.90;;
14554;SDS011;7364;50.870;4.722;2024-03-23T02:03:25;7.17;;;4.30;;
14554;SDS011;7364;50.870;4.722;2024-03-23T02:05:52;6.47;;;3.87;;
14554;SDS011;7364;50.870;4.722;2024-03-23T02:08:21;9.27;;;4.60;;
14554;SDS011;7364;50.870;4.722;2024-03-23T02:10:48;11.43;;;4.47;;
14554;SDS011;7364;50.870;4.722;2024-03-23T02:13:15;10.73;;;4.07;;
14554;SDS011;7364;50.870;4.722;2024-03-23T02:15:42;15.77;;;4.20;;
14554;SDS011;7364;50.870;4.722;2024-03-23T02:18:10;8.83;;;4.50;;
14554;SDS011;7364;50.870;4.722;2024-03-23T02:20:38;11.60;;;4.23;;
14554;SDS011;7364;50.870;4.722;2024-03-23T02:23:10;10.47;;;3.53;;
14554;SDS011;7364;50.870;4.722;2024-03-23T02:25:39;12.77;;;4.47;;
14554;SDS011;7364;50.870;4.722;2024-03-23T02:28:06;12.70;;;4.60;;
14554;SDS011;7364;50.870;4.722;2024-03-23T02:30:33;8.83;;;3.97;;
14554;SDS011;7364;50.870;4.722;2024-03-23T02:33:00;12.17;;;4.40;;
14554;SDS011;7364;50.870;4.722;2024-03-23T02:35:26;8.33;;;4.13;;
14554;SDS011;7364;50.870;4.722;2024-03-23T02:37:53;5.80;;;3.50;;
14554;SDS011;7364;50.870;4.722;2024-03-23T02:40:23;9.07;;;3.97;;
14554;SDS011;7364;50.870;4.722;2024-03-23T02:42:50;7.77;;;4.20;;
14554;SDS011;7364;50.870;4.722;2024-03-23T02:45:17;6.80;;;3.93;;
14554;SDS011;7364;50.870;4.722;2024-03-23T02:47:44;12.50;;;4.43;;
14554;SDS011;7364;50.870;4.722;2024-03-23T02:50:10;11.23;;;4.43;;
14554;SDS011;7364;50.870;4.722;2024-03-23T02:52:40;8.73;;;4.13;;
14554;SDS011;7364;50.870;4.722;2024-03-23T02:55:06;7.63;;;3.70;;
14554;SDS011;7364;50.870;4.722;2024-03-23T02:57:35;9.70;;;3.73;;
14554;SDS011;7364;50.870;4.722;2024-03-23T03:00:02;6.13;;;3.53;;
14554;SDS011;7364;50.870;4.722;2024-03-23T03:02:30;6.93;;;4.50;;
14554;SDS011;7364;50.870;4.722;2024-03-23T03:04:56;9.97;;;5.13;;
14554;SDS011;7364;50.870;4.722;2024-03-23T03:07:23;8.47;;;5.00;;
14554;SDS011;7364;50.870;4.722;2024-03-23T03:09:50;15.70;;;5.37;;
14554;SDS011;7364;50.870;4.722;2024-03-23T03:12:17;11.47;;;5.00;;
14554;SDS011;7364;50.870;4.722;2024-03-23T03:14:45;9.73;;;5.40;;
14554;SDS011;7364;50.870;4.722;2024-03-23T03:17:13;6.67;;;4.87;;
14554;SDS011;7364;50.870;4.722;2024-03-23T03:19:40;8.07;;;4.93;;
14554;SDS011;7364;50.870;4.722;2024-03-23T03:22:07;9.87;;;5.20;;
14554;SDS011;7364;50.870;4.722;2024-03-23T03:24:34;9.23;;;4.83;;
14554;SDS011;7364;50.870;4.722;2024-03-23T03:27:02;11.90;;;5.63;;
14554;SDS011;7364;50.870;4.722;2024-03-23T03:29:28;10.07;;;5.00;;
14554;SDS011;7364;50.870;4.722;2024-03-23T03:32:03;10.83;;;5.80;;
14554;SDS011;7364;50.870;4.722;2024-03-23T03:34:29;12.00;;;5.63;;
14554;SDS011;7364;50.870;4.722;2024-03-23T03:36:56;10.80;;;4.60;;
14554;SDS011;7364;50.870;4.722;2024-03-23T03:39:23;17.00;;;5.03;;
14554;SDS011;7364;50.870;4.722;2024-03-23T03:41:50;10.57;;;5.33;;
14554;SDS011;7364;50.870;4.722;2024-03-23T03:44:17;9.27;;;4.47;;
14554;SDS011;7364;50.870;4.722;2024-03-23T03:46:44;8.43;;;4.87;;
14554;SDS011;7364;50.870;4.722;2024-03-23T03:49:14;10.33;;;5.30;;
14554;SDS011;7364;50.870;4.722;2024-03-23T03:51:41;10.17;;;4.73;;
14554;SDS011;7364;50.870;4.722;2024-03-23T03:54:08;12.97;;;4.60;;
14554;SDS011;7364;50.870;4.722;2024-03-23T03:56:35;7.77;;;4.87;;
14554;SDS011;7364;50.870;4.722;2024-03-23T03:59:01;9.57;;;4.47;;
14554;SDS011;7364;50.870;4.722;2024-03-23T04:01:28;10.03;;;5.23;;
14554;SDS011;7364;50.870;4.722;2024-03-23T04:03:55;15.47;;;6.17;;
14554;SDS011;7364;50.870;4.722;2024-03-23T04:06:24;7.97;;;5.10;;
14554;SDS011;7364;50.870;4.722;2024-03-23T04:08:50;15.20;;;4.83;;
14554;SDS011;7364;50.870;4.722;2024-03-23T04:11:17;18.30;;;5.80;;
14554;SDS011;7364;50.870;4.722;2024-03-23T04:13:44;14.30;;;6.20;;
14554;SDS011;7364;50.870;4.722;2024-03-23T04:16:11;9.70;;;5.40;;
14554;SDS011;7364;50.870;4.722;2024-03-23T04:18:37;16.47;;;5.77;;
14554;SDS011;7364;50.870;4.722;2024-03-23T04:21:05;14.80;;;6.27;;
14554;SDS011;7364;50.870;4.722;2024-03-23T04:23:32;12.30;;;6.07;;
14554;SDS011;7364;50.870;4.722;2024-03-23T04:26:03;11.13;;;6.57;;
14554;SDS011;7364;50.870;4.722;2024-03-23T04:28:30;13.93;;;6.37;;
14554;SDS011;7364;50.870;4.722;2024-03-23T04:30:57;20.10;;;6.73;;
14554;SDS011;7364;50.870;4.722;2024-03-23T04:33:28;16.43;;;6.07;;
14554;SDS011;7364;50.870;4.722;2024-03-23T04:35:55;11.80;;;7.33;;
14554;SDS011;7364;50.870;4.722;2024-03-23T04:38:22;14.53;;;7.13;;
14554;SDS011;7364;50.870;4.722;2024-03-23T04:40:55;13.37;;;7.00;;
14554;SDS011;7364;50.870;4.722;2024-03-23T04:43:22;13.93;;;7.00;;
14554;SDS011;7364;50.870;4.722;2024-03-23T04:45:50;16.30;;;6.63;;
14554;SDS011;7364;50.870;4.722;2024-03-23T04:48:16;15.20;;;6.73;;
14554;SDS011;7364;50.870;4.722;2024-03-23T04:50:46;9.80;;;6.47;;
14554;SDS011;7364;50.870;4.722;2024-03-23T04:53:14;11.43;;;7.73;;
14554;SDS011;7364;50.870;4.722;2024-03-23T04:55:42;11.27;;;7.50;;
14554;SDS011;7364;50.870;4.722;2024-03-23T04:58:11;22.20;;;8.37;;
14554;SDS011;7364;50.870;4.722;2024-03-23T05:00:38;12.83;;;7.93;;
14554;SDS011;7364;50.870;4.722;2024-03-23T05:03:05;16.93;;;8.37;;
14554;SDS011;7364;50.870;4.722;2024-03-23T05:05:31;14.07;;;6.93;;
14554;SDS011;7364;50.870;4.722;2024-03-23T05:07:58;17.23;;;6.73;;
14554;SDS011;7364;50.870;4.722;2024-03-23T05:10:25;14.43;;;6.87;;
14554;SDS011;7364;50.870;4.722;2024-03-23T05:12:52;11.83;;;7.10;;
14554;SDS011;7364;50.870;4.722;2024-03-23T05:15:20;10.90;;;7.23;;
14554;SDS011;7364;50.870;4.722;2024-03-23T05:17:47;13.57;;;6.50;;
14554;SDS011;7364;50.870;4.722;2024-03-23T05:20:14;15.80;;;7.63;;
14554;SDS011;7364;50.870;4.722;2024-03-23T05:22:41;12.33;;;6.10;;
14554;SDS011;7364;50.870;4.722;2024-03-23T05:25:08;13.73;;;5.93;;
14554;SDS011;7364;50.870;4.722;2024-03-23T05:27:35;11.10;;;5.80;;
14554;SDS011;7364;50.870;4.722;2024-03-23T05:30:03;13.30;;;6.53;;
14554;SDS011;7364;50.870;4.722;2024-03-23T05:32:32;9.37;;;5.57;;
14554;SDS011;7364;50.870;4.722;2024-03-23T05:34:59;16.83;;;5.53;;
14554;SDS011;7364;50.870;4.722;2024-03-23T05:37:26;10.00;;;4.63;;
14554;SDS011;7364;50.870;4.722;2024-03-23T05:39:56;7.17;;;4.47;;
14554;SDS011;7364;50.870;4.722;2024-03-23T05:42:22;10.27;;;5.07;;
14554;SDS011;7364;50.870;4.722;2024-03-23T05:44:50;11.20;;;5.33;;
14554;SDS011;7364;50.870;4.722;2024-03-23T05:47:16;12.40;;;5.27;;
14554;SDS011;7364;50.870;4.722;2024-03-23T05:49:45;15.57;;;6.83;;
14554;SDS011;7364;50.870;4.722;2024-03-23T05:52:11;12.20;;;6.13;;
14554;SDS011;7364;50.870;4.722;2024-03-23T05:54:39;12.57;;;6.20;;
14554;SDS011;7364;50.870;4.722;2024-03-23T05:57:05;19.00;;;5.97;;
14554;SDS011;7364;50.870;4.722;2024-03-23T05:59:33;12.83;;;6.60;;
14554;SDS011;7364;50.870;4.722;2024-03-23T06:02:00;10.07;;;5.83;;
14554;SDS011;7364;50.870;4.722;2024-03-23T06:04:29;14.97;;;6.70;;
14554;SDS011;7364;50.870;4.722;2024-03-23T06:06:56;19.17;;;6.63;;
14554;SDS011;7364;50.870;4.722;2024-03-23T06:09:24;8.73;;;5.30;;
14554;SDS011;7364;50.870;4.722;2024-03-23T06:11:51;18.60;;;6.33;;
14554;SDS011;7364;50.870;4.722;2024-03-23T06:14:18;11.67;;;6.13;;
14554;SDS011;7364;50.870;4.722;2024-03-23T06:16:45;7.37;;;5.80;;
14554;SDS011;7364;50.870;4.722;2024-03-23T06:19:12;12.93;;;5.47;;
14554;SDS011;7364;50.870;4.722;2024-03-23T06:21:43;11.37;;;6.53;;
14554;SDS011;7364;50.870;4.722;2024-03-23T06:24:12;11.67;;;6.33;;
14554;SDS011;7364;50.870;4.722;2024-03-23T06:26:38;15.40;;;6.13;;
14554;SDS011;7364;50.870;4.722;2024-03-23T06:29:05;10.00;;;5.70;;
14554;SDS011;7364;50.870;4.722;2024-03-23T06:31:32;9.33;;;5.77;;
14554;SDS011;7364;50.870;4.722;2024-03-23T06:33:59;8.63;;;4.67;;
14554;SDS011;7364;50.870;4.722;2024-03-23T06:36:26;8.97;;;5.47;;
14554;SDS011;7364;50.870;4.722;2024-03-23T06:38:55;11.20;;;5.00;;
14554;SDS011;7364;50.870;4.722;2024-03-23T06:41:24;8.03;;;4.73;;
14554;SDS011;7364;50.870;4.722;2024-03-23T06:43:52;12.90;;;4.77;;
14554;SDS011;7364;50.870;4.722;2024-03-23T06:46:18;10.77;;;4.23;;
14554;SDS011;7364;50.870;4.722;2024-03-23T06:48:45;8.33;;;4.70;;
14554;SDS011;7364;50.870;4.722;2024-03-23T06:51:12;9.47;;;4.73;;
14554;SDS011;7364;50.870;4.722;2024-03-23T06:53:39;14.67;;;4.80;;
14554;SDS011;7364;50.870;4.722;2024-03-23T06:56:05;9.27;;;4.33;;
14554;SDS011;7364;50.870;4.722;2024-03-23T06:58:34;8.37;;;3.87;;
14554;SDS011;7364;50.870;4.722;2024-03-23T07:01:00;8.10;;;4.00;;
14554;SDS011;7364;50.870;4.722;2024-03-23T07:03:28;7.53;;;3.60;;
14554;SDS011;7364;50.870;4.722;2024-03-23T07:05:57;9.30;;;3.47;;
14554;SDS011;7364;50.870;4.722;2024-03-23T07:08:25;11.70;;;4.07;;
14554;SDS011;7364;50.870;4.722;2024-03-23T07:10:51;8.83;;;4.17;;
14554;SDS011;7364;50.870;4.722;2024-03-23T07:13:18;13.60;;;3.17;;
14554;SDS011;7364;50.870;4.722;2024-03-23T07:15:52;8.67;;;3.63;;
14554;SDS011;7364;50.870;4.722;2024-03-23T07:18:20;9.53;;;3.97;;
14554;SDS011;7364;50.870;4.722;2024-03-23T07:20:53;9.03;;;3.40;;
14554;SDS011;7364;50.870;4.722;2024-03-23T07:23:21;9.90;;;2.90;;
14554;SDS011;7364;50.870;4.722;2024-03-23T07:25:56;13.37;;;4.03;;
14554;SDS011;7364;50.870;4.722;2024-03-23T07:28:23;12.17;;;2.73;;
14554;SDS011;7364;50.870;4.722;2024-03-23T07:31:01;6.73;;;2.80;;
14554;SDS011;7364;50.870;4.722;2024-03-23T07:33:29;12.40;;;3.27;;
14554;SDS011;7364;50.870;4.722;2024-03-23T07:35:56;9.33;;;2.83;;
14554;SDS011;7364;50.870;4.722;2024-03-23T07:38:25;9.23;;;3.37;;
14554;SDS011;7364;50.870;4.722;2024-03-23T07:40:52;9.30;;;2.73;;
14554;SDS011;7364;50.870;4.722;2024-03-23T07:43:29;8.03;;;2.27;;
14554;SDS011;7364;50.870;4.722;2024-03-23T07:45:55;9.10;;;2.50;;
14554;SDS011;7364;50.870;4.722;2024-03-23T07:48:24;5.33;;;2.57;;
14554;SDS011;7364;50.870;4.722;2024-03-23T07:50:57;5.27;;;2.33;;
14554;SDS011;7364;50.870;4.722;2024-03-23T07:53:25;4.60;;;2.40;;
14554;SDS011;7364;50.870;4.722;2024-03-23T07:55:52;3.83;;;2.03;;
14554;SDS011;7364;50.870;4.722;2024-03-23T07:58:23;3.87;;;2.10;;
14554;SDS011;7364;50.870;4.722;2024-03-23T08:00:49;8.33;;;2.30;;
14554;SDS011;7364;50.870;4.722;2024-03-23T08:03:17;5.97;;;2.00;;
14554;SDS011;7364;50.870;4.722;2024-03-23T08:05:44;5.47;;;2.53;;
14554;SDS011;7364;50.870;4.722;2024-03-23T08:08:12;8.07;;;2.73;;
14554;SDS011;7364;50.870;4.722;2024-03-23T08:10:46;8.17;;;2.23;;
14554;SDS011;7364;50.870;4.722;2024-03-23T08:13:16;13.27;;;3.30;;
14554;SDS011;7364;50.870;4.722;2024-03-23T08:15:42;6.90;;;2.73;;
14554;SDS011;7364;50.870;4.722;2024-03-23T08:18:09;10.47;;;3.27;;
14554;SDS011;7364;50.870;4.722;2024-03-23T08:20:37;9.70;;;3.17;;
14554;SDS011;7364;50.870;4.722;2024-03-23T08:23:06;8.93;;;4.07;;
14554;SDS011;7364;50.870;4.722;2024-03-23T08:25:33;8.60;;;3.70;;
14554;SDS011;7364;50.870;4.722;2024-03-23T08:28:00;14.13;;;3.90;;
14554;SDS011;7364;50.870;4.722;2024-03-23T08:30:27;7.37;;;3.33;;
14554;SDS011;7364;50.870;4.722;2024-03-23T08:32:55;10.73;;;3.03;;
14554;SDS011;7364;50.870;4.722;2024-03-23T08:35:21;16.07;;;3.30;;
14554;SDS011;7364;50.870;4.722;2024-03-23T08:37:48;14.30;;;3.57;;
14554;SDS011;7364;50.870;4.722;2024-03-23T08:40:16;7.67;;;3.33;;
14554;SDS011;7364;50.870;4.722;2024-03-23T08:42:43;10.13;;;2.77;;
14554;SDS011;7364;50.870;4.722;2024-03-23T08:45:10;5.20;;;2.80;;
14554;SDS011;7364;50.870;4.722;2024-03-23T08:47:37;10.63;;;2.83;;
14554;SDS011;7364;50.870;4.722;2024-03-23T08:50:03;10.20;;;2.43;;
14554;SDS011;7364;50.870;4.722;2024-03-23T08:52:31;7.33;;;3.10;;
14554;SDS011;7364;50.870;4.722;2024-03-23T08:54:58;12.03;;;3.10;;
14554;SDS011;7364;50.870;4.722;2024-03-23T08:57:26;8.37;;;2.83;;
14554;SDS011;7364;50.870;4.722;2024-03-23T08:59:53;14.83;;;3.27;;
14554;SDS011;7364;50.870;4.722;2024-03-23T09:02:20;6.80;;;2.73;;
14554;SDS011;7364;50.870;4.722;2024-03-23T09:04:46;13.93;;;3.07;;
14554;SDS011;7364;50.870;4.722;2024-03-23T09:07:13;9.83;;;3.23;;
14554;SDS011;7364;50.870;4.722;2024-03-23T09:09:39;18.37;;;3.50;;
14554;SDS011;7364;50.870;4.722;2024-03-23T09:12:07;9.77;;;3.17;;
14554;SDS011;7364;50.870;4.722;2024-03-23T09:14:35;8.43;;;3.27;;
14554;SDS011;7364;50.870;4.722;2024-03-23T09:17:02;3.47;;;2.00;;
14554;SDS011;7364;50.870;4.722;2024-03-23T09:19:28;7.10;;;2.50;;
14554;SDS011;7364;50.870;4.722;2024-03-23T09:21:56;4.93;;;2.70;;
14554;SDS011;7364;50.870;4.722;2024-03-23T09:24:22;8.27;;;2.43;;
14554;SDS011;7364;50.870;4.722;2024-03-23T09:26:51;9.03;;;2.70;;
14554;SDS011;7364;50.870;4.722;2024-03-23T09:29:17;6.53;;;2.57;;
14554;SDS011;7364;50.870;4.722;2024-03-23T09:31:46;9.77;;;2.97;;
14554;SDS011;7364;50.870;4.722;2024-03-23T09:34:12;4.47;;;2.10;;
14554;SDS011;7364;50.870;4.722;2024-03-23T09:36:40;9.03;;;2.97;;
14554;SDS011;7364;50.870;4.722;2024-03-23T09:39:06;7.33;;;2.67;;
14554;SDS011;7364;50.870;4.722;2024-03-23T09:41:34;6.93;;;2.53;;
14554;SDS011;7364;50.870;4.722;2024-03-23T09:44:00;8.87;;;2.40;;
14554;SDS011;7364;50.870;4.722;2024-03-23T09:46:28;7.03;;;2.50;;
14554;SDS011;7364;50.870;4.722;2024-03-23T09:49:00;9.33;;;3.37;;
14554;SDS011;7364;50.870;4.722;2024-03-23T09:51:30;8.33;;;2.17;;
14554;SDS011;7364;50.870;4.722;2024-03-23T09:53:57;4.00;;;2.30;;
14554;SDS011;7364;50.870;4.722;2024-03-23T09:56:24;4.53;;;2.33;;
14554;SDS011;7364;50.870;4.722;2024-03-23T09:58:50;2.70;;;1.63;;
14554;SDS011;7364;50.870;4.722;2024-03-23T10:01:18;6.80;;;2.43;;
14554;SDS011;7364;50.870;4.722;2024-03-23T10:03:44;5.53;;;2.07;;
14554;SDS011;7364;50.870;4.722;2024-03-23T10:06:13;4.93;;;2.13;;
14554;SDS011;7364;50.870;4.722;2024-03-23T10:08:40;4.03;;;2.40;;
14554;SDS011;7364;50.870;4.722;2024-03-23T10:11:12;5.97;;;2.60;;
14554;SDS011;7364;50.870;4.722;2024-03-23T10:13:39;6.57;;;1.93;;
14554;SDS011;7364;50.870;4.722;2024-03-23T10:16:09;6.77;;;2.27;;
14554;SDS011;7364;50.870;4.722;2024-03-23T10:18:38;4.37;;;2.03;;
14554;SDS011;7364;50.870;4.722;2024-03-23T10:21:06;3.60;;;2.23;;
14554;SDS011;7364;50.870;4.722;2024-03-23T10:23:36;7.07;;;2.67;;
14554;SDS011;7364;50.870;4.722;2024-03-23T10:26:12;4.00;;;1.60;;
14554;SDS011;7364;50.870;4.722;2024-03-23T10:28:53;9.33;;;2.20;;
14554;SDS011;7364;50.870;4.722;2024-03-23T10:31:22;7.30;;;2.27;;
14554;SDS011;7364;50.870;4.722;2024-03-23T10:33:49;7.00;;;2.20;;
14554;SDS011;7364;50.870;4.722;2024-03-23T10:36:19;5.03;;;2.00;;
14554;SDS011;7364;50.870;4.722;2024-03-23T10:38:49;6.47;;;2.63;;
14554;SDS011;7364;50.870;4.722;2024-03-23T10:41:16;3.80;;;2.17;;
14554;SDS011;7364;50.870;4.722;2024-03-23T10:43:45;6.17;;;1.87;;
14554;SDS011;7364;50.870;4.722;2024-03-23T10:46:12;8.60;;;2.80;;
14554;SDS011;7364;50.870;4.722;2024-03-23T10:48:40;4.70;;;2.07;;
14554;SDS011;7364;50.870;4.722;2024-03-23T10:51:07;2.57;;;1.33;;
14554;SDS011;7364;50.870;4.722;2024-03-23T10:53:34;4.03;;;1.57;;
14554;SDS011;7364;50.870;4.722;2024-03-23T10:56:04;4.13;;;1.60;;
14554;SDS011;7364;50.870;4.722;2024-03-23T10:58:32;5.50;;;1.47;;
14554;SDS011;7364;50.870;4.722;2024-03-23T11:01:03;5.53;;;1.37;;
14554;SDS011;7364;50.870;4.722;2024-03-23T11:03:31;5.03;;;1.83;;
14554;SDS011;7364;50.870;4.722;2024-03-23T11:05:59;4.13;;;1.73;;
14554;SDS011;7364;50.870;4.722;2024-03-23T11:08:31;5.80;;;1.90;;
14554;SDS011;7364;50.870;4.722;2024-03-23T11:13:47;2.87;;;1.17;;
14554;SDS011;7364;50.870;4.722;2024-03-23T11:16:14;2.87;;;1.40;;
14554;SDS011;7364;50.870;4.722;2024-03-23T11:18:42;1.40;;;0.97;;
14554;SDS011;7364;50.870;4.722;2024-03-23T11:21:09;4.80;;;1.60;;
14554;SDS011;7364;50.870;4.722;2024-03-23T11:23:37;4.63;;;1.90;;
14554;SDS011;7364;50.870;4.722;2024-03-23T11:26:07;5.73;;;1.90;;
14554;SDS011;7364;50.870;4.722;2024-03-23T11:28:36;3.10;;;1.83;;
14554;SDS011;7364;50.870;4.722;2024-03-23T11:31:09;5.17;;;1.87;;
14554;SDS011;7364;50.870;4.722;2024-03-23T11:33:37;4.93;;;1.60;;
14554;SDS011;7364;50.870;4.722;2024-03-23T11:36:04;3.90;;;1.50;;
14554;SDS011;7364;50.870;4.722;2024-03-23T11:38:31;2.47;;;1.50;;
14554;SDS011;7364;50.870;4.722;2024-03-23T11:41:03;4.23;;;1.37;;
14554;SDS011;7364;50.870;4.722;2024-03-23T11:43:31;4.13;;;1.50;;
14554;SDS011;7364;50.870;4.722;2024-03-23T11:45:59;2.73;;;1.00;;
14554;SDS011;7364;50.870;4.722;2024-03-23T11:48:29;5.93;;;1.70;;
14554;SDS011;7364;50.870;4.722;2024-03-23T11:50:56;4.73;;;1.70;;
14554;SDS011;7364;50.870;4.722;2024-03-23T11:53:24;4.37;;;1.30;;
14554;SDS011;7364;50.870;4.722;2024-03-23T11:55:53;2.40;;;1.00;;
14554;SDS011;7364;50.870;4.722;2024-03-23T11:58:22;2.37;;;1.03;;
14554;SDS011;7364;50.870;4.722;2024-03-23T12:00:49;3.73;;;1.40;;
14554;SDS011;7364;50.870;4.722;2024-03-23T12:03:19;4.67;;;1.73;;
14554;SDS011;7364;50.870;4.722;2024-03-23T12:05:50;4.47;;;1.30;;
14554;SDS011;7364;50.870;4.722;2024-03-23T12:08:22;2.93;;;1.10;;
14554;SDS011;7364;50.870;4.722;2024-03-23T12:10:50;4.63;;;1.00;;
14554;SDS011;7364;50.870;4.722;2024-03-23T12:13:19;4.10;;;1.80;;
14554;SDS011;7364;50.870;4.722;2024-03-23T12:15:46;2.50;;;1.30;;
14554;SDS011;7364;50.870;4.722;2024-03-23T12:18:14;1.33;;;0.57;;
14554;SDS011;7364;50.870;4.722;2024-03-23T12:20:42;2.10;;;1.07;;
14554;SDS011;7364;50.870;4.722;2024-03-23T12:23:09;2.43;;;1.03;;
14554;SDS011;7364;50.870;4.722;2024-03-23T12:25:37;2.47;;;1.17;;
14554;SDS011;7364;50.870;4.722;2024-03-23T12:28:04;5.83;;;1.20;;
14554;SDS011;7364;50.870;4.722;2024-03-23T12:30:32;2.43;;;1.30;;
14554;SDS011;7364;50.870;4.722;2024-03-23T12:33:02;5.23;;;1.70;;
14554;SDS011;7364;50.870;4.722;2024-03-23T12:35:28;2.43;;;1.30;;
14554;SDS011;7364;50.870;4.722;2024-03-23T12:37:57;2.93;;;1.70;;
14554;SDS011;7364;50.870;4.722;2024-03-23T12:40:23;2.63;;;1.37;;
14554;SDS011;7364;50.870;4.722;2024-03-23T12:42:51;5.27;;;1.77;;
14554;SDS011;7364;50.870;4.722;2024-03-23T12:45:18;4.13;;;1.30;;
14554;SDS011;7364;50.870;4.722;2024-03-23T12:47:45;4.40;;;1.93;;
14554;SDS011;7364;50.870;4.722;2024-03-23T12:50:11;3.57;;;1.37;;
14554;SDS011;7364;50.870;4.722;2024-03-23T12:52:39;2.77;;;0.90;;
14554;SDS011;7364;50.870;4.722;2024-03-23T12:55:07;4.10;;;1.10;;
14554;SDS011;7364;50.870;4.722;2024-03-23T12:57:34;2.07;;;1.00;;
14554;SDS011;7364;50.870;4.722;2024-03-23T13:00:01;2.83;;;0.90;;
14554;SDS011;7364;50.870;4.722;2024-03-23T13:02:29;4.30;;;0.80;;
14554;SDS011;7364;50.870;4.722;2024-03-23T13:04:55;2.40;;;1.20;;
14554;SDS011;7364;50.870;4.722;2024-03-23T13:07:24;1.90;;;1.03;;
14554;SDS011;7364;50.870;4.722;2024-03-23T13:09:50;2.77;;;1.50;;
14554;SDS011;7364;50.870;4.722;2024-03-23T13:12:19;3.13;;;1.57;;
14554;SDS011;7364;50.870;4.722;2024-03-23T13:14:45;2.77;;;1.33;;
14554;SDS011;7364;50.870;4.722;2024-03-23T13:17:13;3.00;;;1.53;;
14554;SDS011;7364;50.870;4.722;2024-03-23T13:19:40;4.33;;;1.33;;
14554;SDS011;7364;50.870;4.722;2024-03-23T13:22:07;5.03;;;1.87;;
14554;SDS011;7364;50.870;4.722;2024-03-23T13:24:37;2.90;;;1.40;;
14554;SDS011;7364;50.870;4.722;2024-03-23T13:27:04;3.50;;;1.23;;
14554;SDS011;7364;50.870;4.722;2024-03-23T13:29:34;2.87;;;1.40;;
14554;SDS011;7364;50.870;4.722;2024-03-23T13:32:03;3.53;;;1.70;;
14554;SDS011;7364;50.870;4.722;2024-03-23T13:34:29;3.53;;;1.60;;
14554;SDS011;7364;50.870;4.722;2024-03-23T13:36:56;4.00;;;1.33;;
14554;SDS011;7364;50.870;4.722;2024-03-23T13:39:23;3.70;;;1.53;;
14554;SDS011;7364;50.870;4.722;2024-03-23T13:41:52;3.23;;;0.83;;
14554;SDS011;7364;50.870;4.722;2024-03-23T13:44:20;9.10;;;1.23;;
14554;SDS011;7364;50.870;4.722;2024-03-23T13:46:48;4.27;;;1.77;;
14554;SDS011;7364;50.870;4.722;2024-03-23T13:49:20;6.23;;;1.30;;
14554;SDS011;7364;50.870;4.722;2024-03-23T13:51:52;1.83;;;0.83;;
14554;SDS011;7364;50.870;4.722;2024-03-23T13:54:18;1.07;;;0.53;;
14554;SDS011;7364;50.870;4.722;2024-03-23T13:56:47;3.80;;;0.80;;
14554;SDS011;7364;50.870;4.722;2024-03-23T13:59:14;2.87;;;1.20;;
14554;SDS011;7364;50.870;4.722;2024-03-23T14:01:42;1.83;;;1.00;;
14554;SDS011;7364;50.870;4.722;2024-03-23T14:04:10;5.50;;;1.10;;
14554;SDS011;7364;50.870;4.722;2024-03-23T14:06:37;2.33;;;1.00;;
14554;SDS011;7364;50.870;4.722;2024-03-23T14:09:03;2.70;;;0.97;;
14554;SDS011;7364;50.870;4.722;2024-03-23T14:11:34;1.57;;;0.90;;
14554;SDS011;7364;50.870;4.722;2024-03-23T14:14:01;2.70;;;1.03;;
14554;SDS011;7364;50.870;4.722;2024-03-23T14:16:29;2.53;;;0.97;;
14554;SDS011;7364;50.870;4.722;2024-03-23T14:18:56;3.97;;;1.20;;
14554;SDS011;7364;50.870;4.722;2024-03-23T14:21:25;1.93;;;1.23;;
14554;SDS011;7364;50.870;4.722;2024-03-23T14:23:52;1.80;;;0.93;;
14554;SDS011;7364;50.870;4.722;2024-03-23T14:26:19;3.37;;;1.20;;
14554;SDS011;7364;50.870;4.722;2024-03-23T14:28:46;1.67;;;1.20;;
14554;SDS011;7364;50.870;4.722;2024-03-23T14:31:12;2.97;;;1.50;;
14554;SDS011;7364;50.870;4.722;2024-03-23T14:33:40;8.37;;;1.83;;
14554;SDS011;7364;50.870;4.722;2024-03-23T14:36:11;3.73;;;1.60;;
14554;SDS011;7364;50.870;4.722;2024-03-23T14:38:40;5.17;;;1.60;;
14554;SDS011;7364;50.870;4.722;2024-03-23T14:41:06;2.43;;;1.50;;
14554;SDS011;7364;50.870;4.722;2024-03-23T14:43:34;4.00;;;1.27;;
14554;SDS011;7364;50.870;4.722;2024-03-23T14:46:07;3.53;;;1.53;;
14554;SDS011;7364;50.870;4.722;2024-03-23T14:48:35;10.97;;;1.77;;
14554;SDS011;7364;50.870;4.722;2024-03-23T14:51:02;3.50;;;1.60;;
14554;SDS011;7364;50.870;4.722;2024-03-23T14:53:31;4.00;;;1.30;;
14554;SDS011;7364;50.870;4.722;2024-03-23T14:55:59;3.93;;;1.13;;
14554;SDS011;7364;50.870;4.722;2024-03-23T14:58:28;5.43;;;1.43;;
14554;SDS011;7364;50.870;4.722;2024-03-23T15:00:59;4.73;;;1.60;;
14554;SDS011;7364;50.870;4.722;2024-03-23T15:03:27;3.90;;;1.07;;
14554;SDS011;7364;50.870;4.722;2024-03-23T15:05:54;3.53;;;1.13;;
14554;SDS011;7364;50.870;4.722;2024-03-23T15:08:22;1.77;;;1.10;;
14554;SDS011;7364;50.870;4.722;2024-03-23T15:10:49;3.47;;;1.20;;
14554;SDS011;7364;50.870;4.722;2024-03-23T15:13:18;4.90;;;1.70;;
14554;SDS011;7364;50.870;4.722;2024-03-23T15:15:44;3.03;;;1.30;;
14554;SDS011;7364;50.870;4.722;2024-03-23T15:18:14;4.73;;;1.60;;
14554;SDS011;7364;50.870;4.722;2024-03-23T15:20:41;3.30;;;1.47;;
14554;SDS011;7364;50.870;4.722;2024-03-23T15:23:08;2.83;;;1.53;;
14554;SDS011;7364;50.870;4.722;2024-03-23T15:25:34;4.00;;;1.50;;
14554;SDS011;7364;50.870;4.722;2024-03-23T15:28:01;6.97;;;1.77;;
14554;SDS011;7364;50.870;4.722;2024-03-23T15:30:29;1.80;;;1.10;;
14554;SDS011;7364;50.870;4.722;2024-03-23T15:32:56;3.27;;;1.60;;
14554;SDS011;7364;50.870;4.722;2024-03-23T15:35:23;7.17;;;1.70;;
14554;SDS011;7364;50.870;4.722;2024-03-23T15:37:50;1.97;;;1.23;;
14554;SDS011;7364;50.870;4.722;2024-03-23T15:40:16;3.47;;;1.40;;
14554;SDS011;7364;50.870;4.722;2024-03-23T15:42:43;6.30;;;1.83;;
14554;SDS011;7364;50.870;4.722;2024-03-23T15:45:10;2.73;;;0.90;;
14554;SDS011;7364;50.870;4.722;2024-03-23T15:47:38;7.53;;;1.60;;
14554;SDS011;7364;50.870;4.722;2024-03-23T15:50:05;8.97;;;1.67;;
14554;SDS011;7364;50.870;4.722;2024-03-23T15:52:35;4.13;;;1.30;;
14554;SDS011;7364;50.870;4.722;2024-03-23T15:55:02;4.33;;;1.60;;
14554;SDS011;7364;50.870;4.722;2024-03-23T15:57:32;5.87;;;1.77;;